createdAt,value
2023-01-21T00:01:39.476Z,1.50
2023-01-21T00:04:25.949Z,1.40
2023-01-21T00:07:12.681Z,1.30
2023-01-21T00:10:00.295Z,1.30
2023-01-21T00:12:46.776Z,1.20
2023-01-21T00:15:33.161Z,1.10
2023-01-21T00:18:19.560Z,1.10
2023-01-21T00:21:06.707Z,1.10
2023-01-21T00:23:52.980Z,1.00
2023-01-21T00:26:40.731Z,0.90
2023-01-21T00:29:27.392Z,0.90
2023-01-21T00:32:14.909Z,0.90
2023-01-21T00:35:01.336Z,0.90
2023-01-21T00:37:47.749Z,0.80
2023-01-21T00:40:34.089Z,0.70
2023-01-21T00:43:21.724Z,0.60
2023-01-21T00:46:09.335Z,0.50
2023-01-21T00:48:56.985Z,0.50
2023-01-21T00:51:43.664Z,0.60
2023-01-21T00:54:32.227Z,0.70
2023-01-21T00:57:18.686Z,0.70
2023-01-21T01:00:10.993Z,0.70
2023-01-21T01:02:57.267Z,0.70
2023-01-21T01:05:44.218Z,0.70
2023-01-21T01:08:31.167Z,0.70
2023-01-21T01:11:18.366Z,0.80
2023-01-21T01:14:04.733Z,0.80
2023-01-21T01:16:52.522Z,0.70
2023-01-21T01:19:39.391Z,0.80
2023-01-21T01:22:25.736Z,0.70
2023-01-21T01:25:12.177Z,0.70
2023-01-21T01:27:58.524Z,0.60
2023-01-21T01:30:45.030Z,0.50
2023-01-21T01:33:33.280Z,0.50
2023-01-21T01:36:23.585Z,0.60
2023-01-21T01:39:10.245Z,0.50
2023-01-21T01:41:56.719Z,0.40
2023-01-21T01:45:04.977Z,0.30
2023-01-21T01:47:59.752Z,0.40
2023-01-21T01:50:49.449Z,0.40
2023-01-21T01:53:38.199Z,0.40
2023-01-21T01:56:24.975Z,0.40
2023-01-21T01:59:11.743Z,0.40
2023-01-21T02:01:59.784Z,0.40
2023-01-21T02:04:49.268Z,0.30
2023-01-21T02:07:40.161Z,0.30
2023-01-21T02:10:26.597Z,0.30
2023-01-21T02:13:13.310Z,0.10
2023-01-21T02:16:12.446Z,0.00
2023-01-21T02:19:13.825Z,-0.10
2023-01-21T02:22:08.547Z,-0.10
2023-01-21T02:25:28.532Z,0.00
2023-01-21T02:28:35.321Z,0.00
2023-01-21T02:31:38.079Z,-0.10
2023-01-21T02:34:33.013Z,-0.10
2023-01-21T02:37:24.820Z,0.00
2023-01-21T02:40:19.817Z,0.10
2023-01-21T02:43:11.935Z,0.10
2023-01-21T02:46:04.617Z,0.10
2023-01-21T02:48:56.960Z,0.00
2023-01-21T02:51:48.529Z,0.10
2023-01-21T02:54:56.047Z,0.10
2023-01-21T02:57:46.673Z,-0.10
2023-01-21T03:00:53.716Z,-0.10
2023-01-21T03:03:58.992Z,-0.20
2023-01-21T03:06:56.503Z,-0.10
2023-01-21T03:09:43.519Z,-0.10
2023-01-21T03:12:42.017Z,-0.10
2023-01-21T03:16:05.107Z,0.00
2023-01-21T03:18:53.795Z,0.00
2023-01-21T03:21:41.548Z,0.10
2023-01-21T03:24:30.172Z,0.00
2023-01-21T03:27:20.175Z,0.10
2023-01-21T03:30:13.087Z,0.00
2023-01-21T03:33:01.882Z,-0.10
2023-01-21T03:35:51.701Z,-0.10
2023-01-21T03:38:44.377Z,-0.20
2023-01-21T03:41:36.553Z,-0.30
2023-01-21T03:44:23.572Z,-0.30
2023-01-21T03:47:20.067Z,-0.30
2023-01-21T03:50:11.640Z,-0.30
2023-01-21T03:52:58.006Z,-0.30
2023-01-21T03:55:44.679Z,-0.20
2023-01-21T03:58:32.382Z,-0.20
2023-01-21T04:01:18.903Z,-0.20
2023-01-21T04:04:06.247Z,-0.10
2023-01-21T04:06:52.508Z,0.00
2023-01-21T04:09:38.890Z,0.00
2023-01-21T04:12:25.162Z,0.00
2023-01-21T04:15:13.589Z,0.10
2023-01-21T04:17:59.797Z,0.20
2023-01-21T04:20:47.535Z,0.10
2023-01-21T04:23:34.124Z,0.00
2023-01-21T04:26:20.441Z,-0.10
2023-01-21T04:29:06.893Z,-0.10
2023-01-21T04:31:54.754Z,-0.10
2023-01-21T04:34:41.537Z,0.00
2023-01-21T04:37:28.419Z,-0.10
2023-01-21T04:40:15.404Z,-0.20
2023-01-21T04:43:02.248Z,-0.30
2023-01-21T04:45:50.057Z,-0.40
2023-01-21T04:48:37.930Z,-0.40
2023-01-21T04:51:24.740Z,-0.40
2023-01-21T04:54:11.684Z,-0.40
2023-01-21T04:56:59.077Z,-0.50
2023-01-21T04:59:45.620Z,-0.60
2023-01-21T05:02:31.937Z,-0.60
2023-01-21T05:05:20.161Z,-0.60
2023-01-21T05:08:07.373Z,-0.70
2023-01-21T05:10:54.100Z,-0.80
2023-01-21T05:13:41.008Z,-0.70
2023-01-21T05:16:27.410Z,-0.70
2023-01-21T05:19:14.006Z,-0.70
2023-01-21T05:22:02.350Z,-0.80
2023-01-21T05:24:48.912Z,-1.00
2023-01-21T05:27:35.682Z,-1.10
2023-01-21T05:30:22.780Z,-1.20
2023-01-21T05:33:09.485Z,-1.30
2023-01-21T05:35:55.754Z,-1.50
2023-01-21T05:38:43.919Z,-1.50
2023-01-21T05:41:30.682Z,-1.50
2023-01-21T05:44:17.845Z,-1.70
2023-01-21T05:47:04.512Z,-1.80
2023-01-21T05:49:50.969Z,-1.90
2023-01-21T05:52:37.584Z,-1.90
2023-01-21T05:55:25.466Z,-2.00
2023-01-21T05:58:12.342Z,-2.00
2023-01-21T06:00:59.378Z,-1.90
2023-01-21T06:03:46.136Z,-2.00
2023-01-21T06:06:33.129Z,-1.90
2023-01-21T06:09:19.502Z,-1.90
2023-01-21T06:12:07.600Z,-1.90
2023-01-21T06:14:54.300Z,-1.80
2023-01-21T06:17:40.961Z,-1.80
2023-01-21T06:20:29.482Z,-1.80
2023-01-21T06:23:15.750Z,-1.80
2023-01-21T06:26:02.444Z,-1.70
2023-01-21T06:28:50.527Z,-1.70
2023-01-21T06:31:37.137Z,-1.60
2023-01-21T06:34:23.751Z,-1.50
2023-01-21T06:37:10.667Z,-1.50
2023-01-21T06:39:56.925Z,-1.50
2023-01-21T06:42:47.104Z,-1.50
2023-01-21T06:45:35.021Z,-1.60
2023-01-21T06:48:21.890Z,-1.60
2023-01-21T06:51:08.199Z,-1.70
2023-01-21T06:53:55.440Z,-1.80
2023-01-21T06:56:43.662Z,-1.70
2023-01-21T06:59:30.277Z,-1.80
2023-01-21T07:02:18.095Z,-1.70
2023-01-21T07:05:05.281Z,-1.90
2023-01-21T07:07:55.329Z,-1.80
2023-01-21T07:10:41.942Z,-1.70
2023-01-21T07:13:28.412Z,-1.60
2023-01-21T07:16:15.189Z,-1.50
2023-01-21T07:19:03.443Z,-1.40
2023-01-21T07:21:50.361Z,-1.40
2023-01-21T07:24:37.010Z,-1.30
2023-01-21T07:27:23.312Z,-1.50
2023-01-21T07:30:18.025Z,-1.40
2023-01-21T07:33:06.984Z,-1.30
2023-01-21T07:35:55.007Z,-1.10
2023-01-21T07:38:41.434Z,-1.00
2023-01-21T07:41:28.401Z,-0.90
2023-01-21T07:44:14.736Z,-0.90
2023-01-21T07:47:01.060Z,-1.00
2023-01-21T07:49:49.937Z,-1.10
2023-01-21T07:52:37.809Z,-1.00
2023-01-21T07:55:24.513Z,-1.00
2023-01-21T07:58:11.677Z,-1.00
2023-01-21T08:00:58.009Z,-1.00
2023-01-21T08:03:44.430Z,-1.10
2023-01-21T08:06:30.994Z,-1.10
2023-01-21T08:09:19.057Z,-1.10
2023-01-21T08:12:06.557Z,-1.10
2023-01-21T08:14:53.219Z,-0.90
2023-01-21T08:17:39.925Z,-1.00
2023-01-21T08:20:26.388Z,-0.90
2023-01-21T08:23:13.292Z,-0.80
2023-01-21T08:26:05.562Z,-0.80
2023-01-21T08:28:54.832Z,-0.70
2023-01-21T08:31:41.056Z,-0.70
2023-01-21T08:34:27.863Z,-0.50
2023-01-21T08:37:14.292Z,-0.40
2023-01-21T08:40:01.116Z,-0.30
2023-01-21T08:42:49.024Z,-0.40
2023-01-21T08:45:35.691Z,-0.30
2023-01-21T08:48:22.640Z,-0.20
2023-01-21T08:51:09.650Z,-0.10
2023-01-21T08:53:56.733Z,0.10
2023-01-21T08:56:43.128Z,0.20
2023-01-21T08:59:31.354Z,0.10
2023-01-21T09:02:18.415Z,0.20
2023-01-21T09:05:05.237Z,0.20
2023-01-21T09:07:52.148Z,0.20
2023-01-21T09:10:56.859Z,0.20
2023-01-21T09:13:44.644Z,0.20
2023-01-21T09:16:33.075Z,0.30
2023-01-21T09:19:19.773Z,0.30
2023-01-21T09:22:07.772Z,0.60
2023-01-21T09:24:54.209Z,0.80
2023-01-21T09:27:40.576Z,1.00
2023-01-21T09:30:27.108Z,1.10
2023-01-21T09:33:16.214Z,1.20
2023-01-21T09:36:04.921Z,1.40
2023-01-21T09:38:52.262Z,1.50
2023-01-21T09:41:40.806Z,1.60
2023-01-21T09:44:32.374Z,1.70
2023-01-21T09:47:23.689Z,1.80
2023-01-21T09:50:16.698Z,1.90
2023-01-21T09:53:13.365Z,1.80
2023-01-21T09:56:03.509Z,1.70
2023-01-21T09:58:53.754Z,1.70
2023-01-21T10:01:43.626Z,1.80
2023-01-21T10:04:40.368Z,1.80
2023-01-21T10:07:35.225Z,1.80
2023-01-21T10:10:26.445Z,1.80
2023-01-21T10:13:28.642Z,1.90
2023-01-21T10:16:26.452Z,1.80
2023-01-21T10:19:17.890Z,1.90
2023-01-21T10:22:11.005Z,1.90
2023-01-21T10:25:02.116Z,1.80
2023-01-21T10:27:49.112Z,1.70
2023-01-21T10:30:39.792Z,1.80
2023-01-21T10:33:28.114Z,1.90
2023-01-21T10:36:40.348Z,1.90
2023-01-21T10:39:36.014Z,1.90
2023-01-21T10:42:55.770Z,2.00
2023-01-21T10:45:48.071Z,1.50
2023-01-21T10:48:42.328Z,1.60
2023-01-21T10:51:33.946Z,1.80
2023-01-21T10:54:28.717Z,1.80
2023-01-21T10:57:29.731Z,1.80
2023-01-21T11:00:21.632Z,1.90
2023-01-21T11:03:14.133Z,1.90
2023-01-21T11:06:04.397Z,2.10
2023-01-21T11:08:55.225Z,2.10
2023-01-21T11:11:42.966Z,2.30
2023-01-21T11:14:30.005Z,2.40
2023-01-21T11:17:32.945Z,2.70
2023-01-21T11:20:23.577Z,2.70
2023-01-21T11:23:27.455Z,2.70
2023-01-21T11:26:17.677Z,2.60
2023-01-21T11:29:09.717Z,2.70
2023-01-21T11:32:04.447Z,2.50
2023-01-21T11:34:58.377Z,2.50
2023-01-21T11:37:46.568Z,2.50
2023-01-21T11:40:33.118Z,2.40
2023-01-21T11:43:34.406Z,2.40
2023-01-21T11:46:40.049Z,2.30
2023-01-21T11:49:29.320Z,2.30
2023-01-21T11:52:20.206Z,2.30
2023-01-21T11:55:20.239Z,2.30
2023-01-21T11:58:16.612Z,2.20
2023-01-21T12:01:05.876Z,2.30
2023-01-21T12:03:55.330Z,2.30
2023-01-21T12:06:47.248Z,2.30
2023-01-21T12:09:35.511Z,2.20
2023-01-21T12:12:35.885Z,2.10
2023-01-21T12:15:35.269Z,1.90
2023-01-21T12:18:31.405Z,1.70
2023-01-21T12:21:27.242Z,1.70
2023-01-21T12:24:23.957Z,1.70
2023-01-21T12:27:24.876Z,1.30
2023-01-21T12:30:23.726Z,1.30
2023-01-21T12:33:16.713Z,1.30
2023-01-21T12:36:09.918Z,1.40
2023-01-21T12:39:14.399Z,1.50
2023-01-21T12:42:08.454Z,1.50
2023-01-21T12:45:01.302Z,1.60
2023-01-21T12:47:53.245Z,1.50
2023-01-21T12:50:42.059Z,1.50
2023-01-21T12:53:36.909Z,1.40
2023-01-21T12:56:33.034Z,1.50
2023-01-21T12:59:24.421Z,1.60
2023-01-21T13:02:23.720Z,1.80
2023-01-21T13:05:16.438Z,1.80
2023-01-21T13:08:18.021Z,1.80
2023-01-21T13:11:12.385Z,1.50
2023-01-21T13:14:18.395Z,1.60
2023-01-21T13:17:14.061Z,1.60
2023-01-21T13:20:03.777Z,1.50
2023-01-21T13:22:59.941Z,1.50
2023-01-21T13:25:55.808Z,1.50
2023-01-21T13:28:46.982Z,1.50
2023-01-21T13:31:41.381Z,1.60
2023-01-21T13:34:34.911Z,1.60
2023-01-21T13:37:30.640Z,1.60
2023-01-21T13:40:25.663Z,1.60
2023-01-21T13:43:31.766Z,1.60
2023-01-21T13:46:33.593Z,1.70
2023-01-21T13:49:44.585Z,1.80
2023-01-21T13:52:44.696Z,1.80
2023-01-21T13:55:44.171Z,1.80
2023-01-21T13:58:39.035Z,1.80
2023-01-21T14:01:29.724Z,1.70
2023-01-21T14:04:21.901Z,1.70
2023-01-21T14:07:11.895Z,1.70
2023-01-21T14:10:07.642Z,1.70
2023-01-21T14:13:15.298Z,1.70
2023-01-21T14:16:18.845Z,1.50
2023-01-21T14:19:25.040Z,1.50
2023-01-21T14:22:50.217Z,1.50
2023-01-21T14:25:50.456Z,1.50
2023-01-21T14:28:47.302Z,1.60
2023-01-21T14:31:38.126Z,1.60
2023-01-21T14:34:29.376Z,1.50
2023-01-21T14:37:19.353Z,1.50
2023-01-21T14:40:14.097Z,1.50
2023-01-21T14:43:02.097Z,1.40
2023-01-21T14:45:54.135Z,1.30
2023-01-21T14:48:42.603Z,1.30
2023-01-21T14:51:31.494Z,1.20
2023-01-21T14:54:21.643Z,1.30
2023-01-21T14:57:30.144Z,1.40
2023-01-21T15:00:24.258Z,1.30
2023-01-21T15:03:16.985Z,1.20
2023-01-21T15:06:09.026Z,1.10
2023-01-21T15:09:00.985Z,1.20
2023-01-21T15:11:53.383Z,1.20
2023-01-21T15:14:46.703Z,1.30
2023-01-21T15:18:05.713Z,1.30
2023-01-21T15:21:01.834Z,1.30
2023-01-21T15:23:51.170Z,1.40
2023-01-21T15:26:37.807Z,1.40
2023-01-21T15:29:34.579Z,1.40
2023-01-21T15:32:32.764Z,1.40
2023-01-21T15:35:25.991Z,1.40
2023-01-21T15:38:14.758Z,1.40
2023-01-21T15:41:10.439Z,1.40
2023-01-21T15:44:17.252Z,1.40
2023-01-21T15:47:14.910Z,1.40
2023-01-21T15:50:09.243Z,1.30
2023-01-21T15:53:26.745Z,1.30
2023-01-21T15:56:28.970Z,1.20
2023-01-21T15:59:35.930Z,1.30
2023-01-21T16:02:25.513Z,1.30
2023-01-21T16:05:23.192Z,1.30
2023-01-21T16:08:22.632Z,1.30
2023-01-21T16:11:24.965Z,1.30
2023-01-21T16:14:23.002Z,1.40
2023-01-21T16:17:20.769Z,1.40
2023-01-21T16:20:11.153Z,1.40
2023-01-21T16:23:00.931Z,1.40
2023-01-21T16:25:50.824Z,1.40
2023-01-21T16:28:46.217Z,1.40
2023-01-21T16:31:46.457Z,1.40
2023-01-21T16:34:41.846Z,1.40
2023-01-21T16:37:30.512Z,1.30
2023-01-21T16:40:28.022Z,1.40
2023-01-21T16:43:23.062Z,1.50
2023-01-21T16:46:14.001Z,1.50
2023-01-21T16:49:01.592Z,1.50
2023-01-21T16:51:51.458Z,1.50
2023-01-21T16:54:48.424Z,1.50
2023-01-21T16:57:34.840Z,1.40
2023-01-21T17:00:29.356Z,1.40
2023-01-21T17:03:16.517Z,1.40
2023-01-21T17:06:09.133Z,1.40
2023-01-21T17:08:59.011Z,1.40
2023-01-21T17:11:47.836Z,1.40
2023-01-21T17:14:35.427Z,1.50
2023-01-21T17:17:25.188Z,1.50
2023-01-21T17:20:37.218Z,1.50
2023-01-21T17:23:27.122Z,1.50
2023-01-21T17:26:18.779Z,1.60
2023-01-21T17:29:20.376Z,1.60
2023-01-21T17:32:08.797Z,1.60
2023-01-21T17:35:12.646Z,1.60
2023-01-21T17:38:01.122Z,1.40
2023-01-21T17:41:01.338Z,1.40
2023-01-21T17:43:51.115Z,1.30
2023-01-21T17:46:44.497Z,1.20
2023-01-21T17:49:31.124Z,1.20
2023-01-21T17:52:22.301Z,1.20
2023-01-21T17:55:26.542Z,1.20
2023-01-21T17:58:48.271Z,1.30
2023-01-21T18:01:35.136Z,1.30
2023-01-21T18:04:22.533Z,1.40
2023-01-21T18:07:22.127Z,1.40
2023-01-21T18:10:17.488Z,1.40
2023-01-21T18:13:04.186Z,1.40
2023-01-21T18:15:51.733Z,1.40
2023-01-21T18:18:39.476Z,1.30
2023-01-21T18:21:25.739Z,1.30
2023-01-21T18:24:12.696Z,1.30
2023-01-21T18:27:02.645Z,1.40
2023-01-21T18:29:49.482Z,1.40
2023-01-21T18:32:37.957Z,1.40
2023-01-21T18:35:28.740Z,1.40
2023-01-21T18:38:19.008Z,1.50
2023-01-21T18:41:08.750Z,1.50
2023-01-21T18:43:56.783Z,1.50
2023-01-21T18:46:43.758Z,1.60
2023-01-21T18:49:30.877Z,1.60
2023-01-21T18:52:19.828Z,1.50
2023-01-21T18:55:07.707Z,1.50
2023-01-21T18:57:56.613Z,1.50
2023-01-21T19:00:44.595Z,1.60
2023-01-21T19:03:31.091Z,1.50
2023-01-21T19:06:18.070Z,1.50
2023-01-21T19:09:05.393Z,1.60
2023-01-21T19:11:52.154Z,1.60
2023-01-21T19:14:38.580Z,1.60
2023-01-21T19:17:28.680Z,1.60
2023-01-21T19:20:17.861Z,1.60
2023-01-21T19:23:04.708Z,1.50
2023-01-21T19:25:54.927Z,1.50
2023-01-21T19:28:41.636Z,1.50
2023-01-21T19:31:28.830Z,1.60
2023-01-21T19:34:16.816Z,1.60
2023-01-21T19:37:03.401Z,1.60
2023-01-21T19:39:49.771Z,1.40
2023-01-21T19:42:36.286Z,1.50
2023-01-21T19:45:24.164Z,1.60
2023-01-21T19:48:13.876Z,1.60
2023-01-21T19:51:01.835Z,1.60
2023-01-21T19:53:48.718Z,1.60
2023-01-21T19:56:35.173Z,1.50
2023-01-21T19:59:21.527Z,1.50
2023-01-21T20:02:10.107Z,1.50
2023-01-21T20:04:57.072Z,1.50
2023-01-21T20:07:46.032Z,1.50
2023-01-21T20:10:32.569Z,1.60
2023-01-21T20:13:19.510Z,1.60
2023-01-21T20:16:15.784Z,1.70
2023-01-21T20:19:03.485Z,1.60
2023-01-21T20:22:00.848Z,1.60
2023-01-21T20:24:49.892Z,1.50
2023-01-21T20:27:36.407Z,1.60
2023-01-21T20:30:24.511Z,1.60
2023-01-21T20:33:11.699Z,1.60
2023-01-21T20:35:58.281Z,1.70
2023-01-21T20:38:44.591Z,1.60
2023-01-21T20:41:32.290Z,1.60
2023-01-21T20:44:19.090Z,1.60
2023-01-21T20:47:06.084Z,1.70
2023-01-21T20:49:52.738Z,1.60
2023-01-21T20:52:39.147Z,1.50
2023-01-21T20:55:27.415Z,1.50
2023-01-21T20:58:16.190Z,1.40
2023-01-21T21:01:02.648Z,1.40
2023-01-21T21:03:50.533Z,1.50
2023-01-21T21:06:37.233Z,1.50
2023-01-21T21:09:24.070Z,1.50
2023-01-21T21:12:10.581Z,1.40
2023-01-21T21:14:58.391Z,1.40
2023-01-21T21:17:44.862Z,1.40
2023-01-21T21:20:33.743Z,1.50
2023-01-21T21:23:20.288Z,1.50
2023-01-21T21:26:16.919Z,1.60
2023-01-21T21:29:03.739Z,1.60
2023-01-21T21:31:52.050Z,1.70
2023-01-21T21:34:38.747Z,1.70
2023-01-21T21:37:25.214Z,1.70
2023-01-21T21:40:12.671Z,1.80
2023-01-21T21:43:17.529Z,1.80
2023-01-21T21:46:25.545Z,1.80
2023-01-21T21:49:13.572Z,1.70
2023-01-21T21:52:00.973Z,1.70
2023-01-21T21:54:47.723Z,1.60
2023-01-21T21:57:34.177Z,1.60
2023-01-21T22:00:22.222Z,1.50
2023-01-21T22:03:11.055Z,1.60
2023-01-21T22:06:01.721Z,1.50
2023-01-21T22:08:49.366Z,1.40
2023-01-21T22:11:35.936Z,1.40
2023-01-21T22:14:22.718Z,1.40
2023-01-21T22:17:09.597Z,1.40
2023-01-21T22:19:56.030Z,1.40
2023-01-21T22:22:43.832Z,1.40
2023-01-21T22:25:30.765Z,1.30
2023-01-21T22:28:17.294Z,1.40
2023-01-21T22:31:05.161Z,1.30
2023-01-21T22:33:52.684Z,1.40
2023-01-21T22:36:39.230Z,1.40
2023-01-21T22:39:27.217Z,1.40
2023-01-21T22:42:13.784Z,1.30
2023-01-21T22:45:00.110Z,1.30
2023-01-21T22:47:47.005Z,1.40
2023-01-21T22:50:33.616Z,1.30
2023-01-21T22:53:19.836Z,1.30
2023-01-21T22:56:08.957Z,1.30
2023-01-21T22:58:55.300Z,1.30
2023-01-21T23:01:42.460Z,1.30
2023-01-21T23:04:29.180Z,1.30
2023-01-21T23:07:15.814Z,1.30
2023-01-21T23:10:02.069Z,1.20
2023-01-21T23:12:49.926Z,1.20
2023-01-21T23:15:37.124Z,1.20
2023-01-21T23:18:23.928Z,1.40
2023-01-21T23:21:14.801Z,1.30
2023-01-21T23:24:01.487Z,1.30
2023-01-21T23:26:47.920Z,1.30
2023-01-21T23:29:35.540Z,1.30
2023-01-21T23:32:21.914Z,1.40
2023-01-21T23:35:09.158Z,1.40
2023-01-21T23:37:55.558Z,1.40
2023-01-21T23:40:41.941Z,1.40
2023-01-21T23:43:29.017Z,1.30
2023-01-21T23:46:19.510Z,1.30
2023-01-21T23:49:06.226Z,1.30
2023-01-21T23:51:53.031Z,1.30
2023-01-21T23:54:39.533Z,1.30
2023-01-21T23:57:26.056Z,1.40
